ROMMA est une association bénévole à but non lucratif. Votre soutien est indispensable : ADHERER à ROMMA ou FAIRE un DON

Crempigny - (74, Haute-Savoie)

Albanais-Montagne des Princes (500 m)   Longitude: 05° 54' 5" E   Latitude: 45° 57' 0" N Station partenaire n°10
 

Détail journalier du     <<     >>

Température Precipitation Humidité Pression Vent Dir Rafale Dir. rafale Ensol. 20 cm au dessus du sol
Heure (°C) (mm) (%) (hPa) (km/h) (km/h) (min) (°C)
01:00 5.709710112NNO5NNO05.6
02:00 5.909810111N6NNO06.1
03:00 6.309810101N5N06.1
04:00 6.109710111N5N05.6
05:00 5.909810101N5N05.6
06:00 6.109810103N6N05.6
07:00 5.8098101103N05.6
08:00 5.809810111N6N05.6
09:00 5.609810112N6N06.1
10:00 6.009910111N6N07.2
11:00 6.9099101203N09.4
12:00 7.509810121SO5N010.0
13:00 7.709710112S6SO010.6
14:00 8.509410112S6S010.6
15:00 8.609410122SO6S010.0
16:00 8.809210121SO5SO09.4
17:00 8.509210121SO5SO07.8
18:00 7.809410131ONO6O06.7
19:00 7.109510132ONO6ONO06.7
20:00 6.809510134NO8NO06.1
21:00 7.009510133NO8NO06.7
22:00 5.909610141NO5NO05.0
23:00 5.809710141NO3NO05.6
minuit 6.10.29810141NO5NO06.1

Graphique du 25-11-2019

 

Serveur OMMA